Weather at Trier-Föhren Airfield

Public forecast

Using degrees Celsius for public forecast. Weather courtesy of forecast.io.

Closest aviation weather report (METAR) to Trier-Föhren Airfield

Closest report is Spangdahlem Air Base, 7.6 nm (14.1 km) NNW.

2024/07/21 08:55 (retrieved 38 minutes ago)

ETAD 210855Z AUTO 22009KT 9999 CLR 24/17 A2980 RMK AO2 SLP075 T02410171 53011

Closest aviation forecast (TAF) to Trier-Föhren Airfield

Forecast is more than 12 hours old.

Closest forecast is Spangdahlem Air Base, 7.6 nm (14.1 km) NNW.

2024/07/20 18:06 Ammendment (retrieved 15 hours ago)

TAF AMD ETAD 201800Z 2018/2120 18006KT 9999 FEW030 FEW200 QNH2974INS TEMPO 2101/2102 VRB10G15KT 6000 -TSRA BKN005 OVC030CB BECMG 2101/2102 VRB03KT 3200 BR SCT005 BKN030 QNH2970INS BECMG 2109/2110 21009KT 9000 -SHRA BKN025 OVC070 QNH2972INS TEMPO 2113/2118 VRB10G15KT 6000 -TSRA OVC025CB TX27/2018Z TN19/2104Z LAST NO AMDS AFT 2018 NEXT 2110